This is the latest recevied weather packets stored in our database for station/object G4MDP-13. If no packets are shown the sender has not sent any weather packets the latest 10 day(s).
| Time | Temp. | Humidity | Pressure | Rain* | Wind** | Luminosity | Snow |
|---|---|---|---|---|---|---|---|
| 1777902530 | 17.22° C | 70% | 1007.4 hPa | 0 mm | - | - | - |
| 1777901690 | 17.22° C | 70% | 1007.5 hPa | 0 mm | - | - | - |
| 1777901633 | 17.22° C | 69% | 1007.5 hPa | 0 mm | - | - | - |
| 1777901631 | 17.22° C | 69% | 1007.5 hPa | 0 mm | - | - | - |
| 1777900731 | 18.89° C | 64% | 1007.4 hPa | 0 mm | - | - | - |
| 1777899890 | 19.44° C | 62% | 1007.5 hPa | 0 mm | - | - | - |
| 1777899831 | 19.44° C | 62% | 1007.5 hPa | 0 mm | - | - | - |
| 1777898931 | 18.33° C | 66% | 1013.6 hPa | 0 mm | - | - | - |
| 1777898090 | 17.78° C | 69% | 1007.5 hPa | 0 mm | - | - | - |
| 1777898033 | 17.78° C | 69% | 1007.5 hPa | 0 mm | - | - | - |
| 1777898031 | 17.78° C | 69% | 1007.5 hPa | 0 mm | - | - | - |
| 1777897131 | 17.78° C | 69% | 1007.6 hPa | 0 mm | - | - | - |
| 1777896290 | 18.33° C | 67% | 1007.5 hPa | 0 mm | - | - | - |
| 1777896233 | 18.33° C | 67% | 1007.7 hPa | 0 mm | - | - | - |
| 1777896231 | 18.33° C | 67% | 1007.7 hPa | 0 mm | - | - | - |
| 1777895333 | 18.33° C | 66% | 1007.5 hPa | 0 mm | - | - | - |
| 1777895331 | 18.33° C | 66% | 1007.5 hPa | 0 mm | - | - | - |
| 1777894490 | 18.89° C | 62% | 1007.8 hPa | 0 mm | - | - | - |
| 1777894431 | 18.89° C | 62% | 1007.5 hPa | 0 mm | - | - | - |
| 1777893533 | 17.78° C | 65% | 1007.7 hPa | 0 mm | - | - | - |
| 1777893531 | 17.78° C | 65% | 1007.7 hPa | 0 mm | - | - | - |
| 1777892690 | 16.67° C | 69% | 1007.8 hPa | 0 mm | - | - | - |
| 1777892631 | 16.67° C | 70% | 1007.8 hPa | 0 mm | - | - | - |
| 1777891731 | 16.67° C | 73% | 1007.9 hPa | 0 mm | - | - | - |
| 1777891730 | 16.67° C | 73% | 1007.9 hPa | 0 mm | - | - | - |
* Rain latest hour (hover to see other rain measurements)
** Current wind speed in m/s (hover to see current wind gust speed)